sensor_id;sensor_type;location;lat;lon;timestamp;pressure;altitude;pressure_sealevel;temperature;humidity
68489;BME280;55481;48.764;8.936;2024-01-07T00:03:32;96330;;;4;81
68489;BME280;55481;48.764;8.936;2024-01-07T00:06:03;96330;;;4;80.5
68489;BME280;55481;48.764;8.936;2024-01-07T00:08:34;96340;;;4.1;80.5
68489;BME280;55481;48.764;8.936;2024-01-07T00:15:59;96340;;;4;80.5
68489;BME280;55481;48.764;8.936;2024-01-07T00:18:30;96340;;;4;81
68489;BME280;55481;48.764;8.936;2024-01-07T00:21:01;96340;;;4.1;80.5
68489;BME280;55481;48.764;8.936;2024-01-07T00:23:32;96350;;;4.1;80.5
68489;BME280;55481;48.764;8.936;2024-01-07T00:26:03;96350;;;4.1;80.5
68489;BME280;55481;48.764;8.936;2024-01-07T00:31:18;96340;;;4;80.5
68489;BME280;55481;48.764;8.936;2024-01-07T00:33:42;96340;;;4;80.5
68489;BME280;55481;48.764;8.936;2024-01-07T00:36:19;96340;;;4;80.5
68489;BME280;55481;48.764;8.936;2024-01-07T00:38:43;96340;;;3.9;80.5
68489;BME280;55481;48.764;8.936;2024-01-07T00:46:27;96350;;;3.9;80.5
68489;BME280;55481;48.764;8.936;2024-01-07T00:48:51;96340;;;3.8;80.5
68489;BME280;55481;48.764;8.936;2024-01-07T00:51:23;96340;;;3.9;80.5
68489;BME280;55481;48.764;8.936;2024-01-07T00:53:51;96340;;;3.9;80.5
68489;BME280;55481;48.764;8.936;2024-01-07T00:56:25;96340;;;3.9;80.5
68489;BME280;55481;48.764;8.936;2024-01-07T00:58:52;96350;;;3.9;81
68489;BME280;55481;48.764;8.936;2024-01-07T01:01:29;96350;;;3.8;81
68489;BME280;55481;48.764;8.936;2024-01-07T01:08:47;96340;;;3.7;81
68489;BME280;55481;48.764;8.936;2024-01-07T01:11:18;96340;;;3.7;81
68489;BME280;55481;48.764;8.936;2024-01-07T01:13:49;96340;;;3.7;81
68489;BME280;55481;48.764;8.936;2024-01-07T01:16:20;96350;;;3.8;81
68489;BME280;55481;48.764;8.936;2024-01-07T01:18:50;96350;;;3.7;81
68489;BME280;55481;48.764;8.936;2024-01-07T01:21:21;96350;;;3.7;81
68489;BME280;55481;48.764;8.936;2024-01-07T01:23:59;96350;;;3.7;81
68489;BME280;55481;48.764;8.936;2024-01-07T01:28:54;96360;;;3.6;81
68489;BME280;55481;48.764;8.936;2024-01-07T01:31:25;96360;;;3.6;81
68489;BME280;55481;48.764;8.936;2024-01-07T01:33:57;96360;;;3.5;81
68489;BME280;55481;48.764;8.936;2024-01-07T01:36:28;96360;;;3.6;81
68489;BME280;55481;48.764;8.936;2024-01-07T01:38:58;96360;;;3.7;81
68489;BME280;55481;48.764;8.936;2024-01-07T01:44:00;96360;;;3.6;81
68489;BME280;55481;48.764;8.936;2024-01-07T01:46:31;96360;;;3.6;81
68489;BME280;55481;48.764;8.936;2024-01-07T01:49:02;96360;;;3.5;81
68489;BME280;55481;48.764;8.936;2024-01-07T01:53:56;96360;;;3.6;81
68489;BME280;55481;48.764;8.936;2024-01-07T01:56:27;96360;;;3.5;81
68489;BME280;55481;48.764;8.936;2024-01-07T01:58:58;96360;;;3.5;81
68489;BME280;55481;48.764;8.936;2024-01-07T02:01:30;96360;;;3.5;81
68489;BME280;55481;48.764;8.936;2024-01-07T02:04:00;96370;;;3.5;81
68489;BME280;55481;48.764;8.936;2024-01-07T02:06:31;96360;;;3.6;81
68489;BME280;55481;48.764;8.936;2024-01-07T02:09:01;96360;;;3.6;81
68489;BME280;55481;48.764;8.936;2024-01-07T02:11:32;96360;;;3.7;81
68489;BME280;55481;48.764;8.936;2024-01-07T02:19:05;96370;;;3.8;81
68489;BME280;55481;48.764;8.936;2024-01-07T02:24:32;96370;;;3.8;81
68489;BME280;55481;48.764;8.936;2024-01-07T02:26:49;96370;;;3.7;81
68489;BME280;55481;48.764;8.936;2024-01-07T02:29:19;96370;;;3.7;81
68489;BME280;55481;48.764;8.936;2024-01-07T02:31:57;96370;;;3.6;81
68489;BME280;55481;48.764;8.936;2024-01-07T02:36:44;96370;;;3.5;81
68489;BME280;55481;48.764;8.936;2024-01-07T02:39:21;96370;;;3.6;81
68489;BME280;55481;48.764;8.936;2024-01-07T02:41:52;96370;;;3.6;81
68489;BME280;55481;48.764;8.936;2024-01-07T02:44:23;96370;;;3.6;81
68489;BME280;55481;48.764;8.936;2024-01-07T02:46:47;96370;;;3.6;81
68489;BME280;55481;48.764;8.936;2024-01-07T02:51:55;96370;;;3.7;81
68489;BME280;55481;48.764;8.936;2024-01-07T02:54:25;96370;;;3.7;81
68489;BME280;55481;48.764;8.936;2024-01-07T02:56:49;96370;;;3.7;81
68489;BME280;55481;48.764;8.936;2024-01-07T02:59:20;96370;;;3.7;81
68489;BME280;55481;48.764;8.936;2024-01-07T03:01:51;96370;;;3.7;81
68489;BME280;55481;48.764;8.936;2024-01-07T03:04:22;96370;;;3.7;81
68489;BME280;55481;48.764;8.936;2024-01-07T03:06:53;96370;;;3.6;81
68489;BME280;55481;48.764;8.936;2024-01-07T03:09:31;96370;;;3.7;81
68489;BME280;55481;48.764;8.936;2024-01-07T03:12:02;96370;;;3.7;81
68489;BME280;55481;48.764;8.936;2024-01-07T03:14:26;96380;;;3.7;81
68489;BME280;55481;48.764;8.936;2024-01-07T03:16:57;96380;;;3.6;81
68489;BME280;55481;48.764;8.936;2024-01-07T03:19:35;96380;;;3.7;81
68489;BME280;55481;48.764;8.936;2024-01-07T03:21:59;96380;;;3.7;81
68489;BME280;55481;48.764;8.936;2024-01-07T03:27:00;96380;;;3.5;81
68489;BME280;55481;48.764;8.936;2024-01-07T03:29:31;96390;;;3.5;81
68489;BME280;55481;48.764;8.936;2024-01-07T03:32:02;96390;;;3.6;81
68489;BME280;55481;48.764;8.936;2024-01-07T03:34:40;96390;;;3.5;81
68489;BME280;55481;48.764;8.936;2024-01-07T03:37:23;96390;;;3.5;81
68489;BME280;55481;48.764;8.936;2024-01-07T03:42:04;96390;;;3.6;81
68489;BME280;55481;48.764;8.936;2024-01-07T03:44:34;96390;;;3.6;81
68489;BME280;55481;48.764;8.936;2024-01-07T03:47:06;96390;;;3.6;81
68489;BME280;55481;48.764;8.936;2024-01-07T03:49:37;96400;;;3.6;81
68489;BME280;55481;48.764;8.936;2024-01-07T03:52:08;96390;;;3.7;81
68489;BME280;55481;48.764;8.936;2024-01-07T03:54:31;96390;;;3.6;81
68489;BME280;55481;48.764;8.936;2024-01-07T03:57:02;96390;;;3.6;81
68489;BME280;55481;48.764;8.936;2024-01-07T04:04:35;96390;;;3.6;81
68489;BME280;55481;48.764;8.936;2024-01-07T04:07:05;96390;;;3.5;81
68489;BME280;55481;48.764;8.936;2024-01-07T04:09:36;96400;;;3.6;81
68489;BME280;55481;48.764;8.936;2024-01-07T04:17:20;96400;;;3.6;81
68489;BME280;55481;48.764;8.936;2024-01-07T04:19:51;96400;;;3.6;81
68489;BME280;55481;48.764;8.936;2024-01-07T04:22:21;96410;;;3.6;81
68489;BME280;55481;48.764;8.936;2024-01-07T04:24:51;96410;;;3.5;81
68489;BME280;55481;48.764;8.936;2024-01-07T04:27:15;96420;;;3.6;81
68489;BME280;55481;48.764;8.936;2024-01-07T04:29:45;96410;;;3.7;81
68489;BME280;55481;48.764;8.936;2024-01-07T04:32:23;96410;;;3.7;81
68489;BME280;55481;48.764;8.936;2024-01-07T04:34:54;96410;;;3.6;81
68489;BME280;55481;48.764;8.936;2024-01-07T04:40:03;96410;;;3.5;81
68489;BME280;55481;48.764;8.936;2024-01-07T04:42:25;96420;;;3.6;81
68489;BME280;55481;48.764;8.936;2024-01-07T04:44:50;96420;;;3.6;81
68489;BME280;55481;48.764;8.936;2024-01-07T04:47:29;96420;;;3.6;81
68489;BME280;55481;48.764;8.936;2024-01-07T04:49:52;96430;;;3.7;81
68489;BME280;55481;48.764;8.936;2024-01-07T04:52:23;96430;;;3.6;81
68489;BME280;55481;48.764;8.936;2024-01-07T04:54:54;96430;;;3.7;81
68489;BME280;55481;48.764;8.936;2024-01-07T04:57:24;96440;;;3.6;81
68489;BME280;55481;48.764;8.936;2024-01-07T05:02:27;96440;;;3.6;81.5
68489;BME280;55481;48.764;8.936;2024-01-07T05:07:29;96440;;;3.6;81
68489;BME280;55481;48.764;8.936;2024-01-07T05:10:00;96440;;;3.7;81
68489;BME280;55481;48.764;8.936;2024-01-07T05:12:31;96440;;;3.6;81
68489;BME280;55481;48.764;8.936;2024-01-07T05:15:08;96440;;;3.7;81
68489;BME280;55481;48.764;8.936;2024-01-07T05:17:33;96440;;;3.6;81
68489;BME280;55481;48.764;8.936;2024-01-07T05:22:34;96450;;;3.7;81
68489;BME280;55481;48.764;8.936;2024-01-07T05:25:06;96450;;;3.7;81
68489;BME280;55481;48.764;8.936;2024-01-07T05:27:36;96450;;;3.5;81
68489;BME280;55481;48.764;8.936;2024-01-07T05:35:21;96450;;;3.4;81.5
68489;BME280;55481;48.764;8.936;2024-01-07T05:37:58;96460;;;3.4;81.5
68489;BME280;55481;48.764;8.936;2024-01-07T05:42:39;96460;;;3.5;81.5
68489;BME280;55481;48.764;8.936;2024-01-07T05:45:10;96460;;;3.5;81.5
68489;BME280;55481;48.764;8.936;2024-01-07T05:47:41;96460;;;3.5;81.5
68489;BME280;55481;48.764;8.936;2024-01-07T05:50:12;96470;;;3.5;81.5
68489;BME280;55481;48.764;8.936;2024-01-07T05:52:43;96470;;;3.5;81.5
68489;BME280;55481;48.764;8.936;2024-01-07T05:55:14;96470;;;3.5;81.5
68489;BME280;55481;48.764;8.936;2024-01-07T05:57:45;96480;;;3.4;81.5
68489;BME280;55481;48.764;8.936;2024-01-07T06:00:22;96480;;;3.4;81.5
68489;BME280;55481;48.764;8.936;2024-01-07T06:08:02;96480;;;3.4;81.5
68489;BME280;55481;48.764;8.936;2024-01-07T06:10:25;96480;;;3.3;81.5
68489;BME280;55481;48.764;8.936;2024-01-07T06:12:50;96490;;;3.3;81.5
68489;BME280;55481;48.764;8.936;2024-01-07T06:15:21;96490;;;3.3;81.5
68489;BME280;55481;48.764;8.936;2024-01-07T06:17:52;96490;;;3.3;81.5
68489;BME280;55481;48.764;8.936;2024-01-07T06:20:23;96490;;;3.3;81.5
68489;BME280;55481;48.764;8.936;2024-01-07T06:22:54;96490;;;3.4;81.5
68489;BME280;55481;48.764;8.936;2024-01-07T06:25:24;96490;;;3.3;81
68489;BME280;55481;48.764;8.936;2024-01-07T06:28:02;96490;;;3.2;81.5
68489;BME280;55481;48.764;8.936;2024-01-07T06:32:58;96500;;;3.2;81.5
68489;BME280;55481;48.764;8.936;2024-01-07T06:35:29;96500;;;3.2;81.5
68489;BME280;55481;48.764;8.936;2024-01-07T06:38:00;96510;;;3.2;81.5
68489;BME280;55481;48.764;8.936;2024-01-07T06:40:30;96510;;;3.3;81.5
68489;BME280;55481;48.764;8.936;2024-01-07T06:43:08;96510;;;3.3;81.5
68489;BME280;55481;48.764;8.936;2024-01-07T06:45:33;96510;;;3.4;81
68489;BME280;55481;48.764;8.936;2024-01-07T06:48:03;96520;;;3.4;81
68489;BME280;55481;48.764;8.936;2024-01-07T06:50:34;96520;;;3.5;81
68489;BME280;55481;48.764;8.936;2024-01-07T06:53:06;96520;;;3.4;81
68489;BME280;55481;48.764;8.936;2024-01-07T07:00:39;96530;;;3.4;81.5
68489;BME280;55481;48.764;8.936;2024-01-07T07:03:09;96530;;;3.4;81.5
68489;BME280;55481;48.764;8.936;2024-01-07T07:05:40;96540;;;3.4;81.5
68489;BME280;55481;48.764;8.936;2024-01-07T07:08:11;96530;;;3.4;81.5
68489;BME280;55481;48.764;8.936;2024-01-07T07:10:42;96530;;;3.4;81.5
68489;BME280;55481;48.764;8.936;2024-01-07T07:15:48;96540;;;3.4;81.5
68489;BME280;55481;48.764;8.936;2024-01-07T07:18:15;96540;;;3.4;81.5
68489;BME280;55481;48.764;8.936;2024-01-07T07:20:46;96550;;;3.4;81.5
68489;BME280;55481;48.764;8.936;2024-01-07T07:23:23;96550;;;3.4;81.5
68489;BME280;55481;48.764;8.936;2024-01-07T07:28:31;96560;;;3.3;81.5
68489;BME280;55481;48.764;8.936;2024-01-07T07:31:10;96560;;;3.3;81.5
68489;BME280;55481;48.764;8.936;2024-01-07T07:33:25;96570;;;3.3;81.5
68489;BME280;55481;48.764;8.936;2024-01-07T07:35:55;96570;;;3.3;81.5
68489;BME280;55481;48.764;8.936;2024-01-07T07:38:26;96570;;;3.4;81.5
68489;BME280;55481;48.764;8.936;2024-01-07T07:43:20;96570;;;3.4;81.5
68489;BME280;55481;48.764;8.936;2024-01-07T07:45:53;96580;;;3.4;81
68489;BME280;55481;48.764;8.936;2024-01-07T07:48:21;96580;;;3.4;81
68489;BME280;55481;48.764;8.936;2024-01-07T07:53:37;96590;;;3.3;81.5
68489;BME280;55481;48.764;8.936;2024-01-07T07:56:25;96600;;;3.1;81.5
68489;BME280;55481;48.764;8.936;2024-01-07T08:00:53;96600;;;3.1;81.5
68489;BME280;55481;48.764;8.936;2024-01-07T08:03:24;96600;;;3.1;81.5
68489;BME280;55481;48.764;8.936;2024-01-07T08:08:19;96600;;;2.9;81.5
68489;BME280;55481;48.764;8.936;2024-01-07T08:10:50;96610;;;2.8;82
68489;BME280;55481;48.764;8.936;2024-01-07T08:18:22;96620;;;2.9;81.5
68489;BME280;55481;48.764;8.936;2024-01-07T08:20:53;96620;;;2.9;81.5
68489;BME280;55481;48.764;8.936;2024-01-07T08:23:24;96620;;;2.9;81.5
68489;BME280;55481;48.764;8.936;2024-01-07T08:26:01;96620;;;2.9;81.5
68489;BME280;55481;48.764;8.936;2024-01-07T08:28:32;96620;;;3;81.5
68489;BME280;55481;48.764;8.936;2024-01-07T08:33:27;96620;;;3;81
68489;BME280;55481;48.764;8.936;2024-01-07T08:35:58;96630;;;3;81
68489;BME280;55481;48.764;8.936;2024-01-07T08:38:29;96630;;;3;81.5
68489;BME280;55481;48.764;8.936;2024-01-07T08:46:02;96640;;;2.9;81.5
68489;BME280;55481;48.764;8.936;2024-01-07T08:48:32;96640;;;3;81.5
68489;BME280;55481;48.764;8.936;2024-01-07T08:51:16;96630;;;3;81.5
68489;BME280;55481;48.764;8.936;2024-01-07T08:53:46;96640;;;3;81.5
68489;BME280;55481;48.764;8.936;2024-01-07T08:56:11;96630;;;3;81.5
68489;BME280;55481;48.764;8.936;2024-01-07T08:58:41;96640;;;3;81
68489;BME280;55481;48.764;8.936;2024-01-07T09:03:36;96640;;;3.1;81.5
68489;BME280;55481;48.764;8.936;2024-01-07T09:13:40;96660;;;3.1;81.5
68489;BME280;55481;48.764;8.936;2024-01-07T09:16:10;96660;;;3.1;81
68489;BME280;55481;48.764;8.936;2024-01-07T09:18:42;96670;;;3.1;81.5
68489;BME280;55481;48.764;8.936;2024-01-07T09:21:12;96670;;;3.1;81.5
68489;BME280;55481;48.764;8.936;2024-01-07T09:26:20;96680;;;3.1;81.5
68489;BME280;55481;48.764;8.936;2024-01-07T09:28:51;96690;;;3;81.5
68489;BME280;55481;48.764;8.936;2024-01-07T09:31:21;96680;;;3;81.5
68489;BME280;55481;48.764;8.936;2024-01-07T09:33:46;96690;;;2.9;81.5
68489;BME280;55481;48.764;8.936;2024-01-07T09:38:48;96690;;;3;81.5
68489;BME280;55481;48.764;8.936;2024-01-07T09:41:18;96680;;;3;81.5
68489;BME280;55481;48.764;8.936;2024-01-07T09:43:49;96680;;;3.1;81.5
68489;BME280;55481;48.764;8.936;2024-01-07T09:46:20;96680;;;3.2;81.5
68489;BME280;55481;48.764;8.936;2024-01-07T09:48:57;96690;;;3.1;81.5
68489;BME280;55481;48.764;8.936;2024-01-07T09:51:29;96690;;;3.1;81.5
68489;BME280;55481;48.764;8.936;2024-01-07T09:56:24;96680;;;3.1;81.5
68489;BME280;55481;48.764;8.936;2024-01-07T09:58:53;96680;;;3;82
68489;BME280;55481;48.764;8.936;2024-01-07T10:06:26;96680;;;3;82
68489;BME280;55481;48.764;8.936;2024-01-07T10:08:58;96680;;;3;82
68489;BME280;55481;48.764;8.936;2024-01-07T10:11:28;96680;;;2.9;82
68489;BME280;55481;48.764;8.936;2024-01-07T10:13:58;96680;;;2.8;82
68489;BME280;55481;48.764;8.936;2024-01-07T10:16:29;96680;;;2.8;82
68489;BME280;55481;48.764;8.936;2024-01-07T10:18:59;96680;;;2.8;82
68489;BME280;55481;48.764;8.936;2024-01-07T10:26:32;96690;;;2.8;82
68489;BME280;55481;48.764;8.936;2024-01-07T10:29:03;96690;;;2.8;82
68489;BME280;55481;48.764;8.936;2024-01-07T10:31:35;96690;;;2.8;82
68489;BME280;55481;48.764;8.936;2024-01-07T10:36:41;96690;;;2.9;81.5
68489;BME280;55481;48.764;8.936;2024-01-07T10:39:12;96690;;;2.8;82
68489;BME280;55481;48.764;8.936;2024-01-07T10:41:43;96690;;;2.9;82
68489;BME280;55481;48.764;8.936;2024-01-07T10:44:14;96700;;;2.8;82
68489;BME280;55481;48.764;8.936;2024-01-07T10:46:45;96700;;;2.7;82
68489;BME280;55481;48.764;8.936;2024-01-07T10:49:19;96700;;;2.6;82.5
68489;BME280;55481;48.764;8.936;2024-01-07T10:52:08;96710;;;2.6;82.5
68489;BME280;55481;48.764;8.936;2024-01-07T10:59:39;96710;;;2.7;82
68489;BME280;55481;48.764;8.936;2024-01-07T11:01:56;96720;;;2.7;82
68489;BME280;55481;48.764;8.936;2024-01-07T11:06:53;96710;;;2.8;82
68489;BME280;55481;48.764;8.936;2024-01-07T11:09:31;96710;;;2.7;82
68489;BME280;55481;48.764;8.936;2024-01-07T11:11:53;96710;;;2.7;82
68489;BME280;55481;48.764;8.936;2024-01-07T11:19:19;96710;;;2.7;82
68489;BME280;55481;48.764;8.936;2024-01-07T11:21:50;96710;;;2.6;82
68489;BME280;55481;48.764;8.936;2024-01-07T11:24:51;96720;;;2.7;82
68489;BME280;55481;48.764;8.936;2024-01-07T11:26:50;96720;;;2.6;82
68489;BME280;55481;48.764;8.936;2024-01-07T11:29:21;96720;;;2.6;82
68489;BME280;55481;48.764;8.936;2024-01-07T11:31:58;96720;;;2.5;82
68489;BME280;55481;48.764;8.936;2024-01-07T11:34:44;96720;;;2.5;82
68489;BME280;55481;48.764;8.936;2024-01-07T11:37:00;96720;;;2.5;82
68489;BME280;55481;48.764;8.936;2024-01-07T11:39:37;96720;;;2.5;82.5
68489;BME280;55481;48.764;8.936;2024-01-07T11:44:46;96720;;;2.5;82
68489;BME280;55481;48.764;8.936;2024-01-07T11:47:09;96720;;;2.4;82
68489;BME280;55481;48.764;8.936;2024-01-07T11:52:04;96720;;;2.4;82.5
68489;BME280;55481;48.764;8.936;2024-01-07T11:54:34;96720;;;2.3;82
68489;BME280;55481;48.764;8.936;2024-01-07T11:57:06;96720;;;2.4;82
68489;BME280;55481;48.764;8.936;2024-01-07T11:59:36;96720;;;2.4;82
68489;BME280;55481;48.764;8.936;2024-01-07T12:02:08;96730;;;2.4;82
68489;BME280;55481;48.764;8.936;2024-01-07T12:04:45;96720;;;2.3;82
68489;BME280;55481;48.764;8.936;2024-01-07T12:07:16;96720;;;2.3;82
68489;BME280;55481;48.764;8.936;2024-01-07T12:12:11;96730;;;2.4;82
68489;BME280;55481;48.764;8.936;2024-01-07T12:14:43;96730;;;2.4;82
68489;BME280;55481;48.764;8.936;2024-01-07T12:17:16;96730;;;2.3;82
68489;BME280;55481;48.764;8.936;2024-01-07T12:19:44;96730;;;2.2;82
68489;BME280;55481;48.764;8.936;2024-01-07T12:22:15;96730;;;2.1;82.5
68489;BME280;55481;48.764;8.936;2024-01-07T12:24:46;96730;;;2.1;82.5
68489;BME280;55481;48.764;8.936;2024-01-07T12:29:54;96740;;;1.9;82.5
68489;BME280;55481;48.764;8.936;2024-01-07T12:32:26;96740;;;1.9;82.5
68489;BME280;55481;48.764;8.936;2024-01-07T12:37:21;96740;;;2.1;82.5
68489;BME280;55481;48.764;8.936;2024-01-07T12:39:58;96740;;;2.1;82
68489;BME280;55481;48.764;8.936;2024-01-07T12:45:00;96750;;;2;82
68489;BME280;55481;48.764;8.936;2024-01-07T12:47:28;96740;;;2;82
68489;BME280;55481;48.764;8.936;2024-01-07T12:52:23;96740;;;1.8;82.5
68489;BME280;55481;48.764;8.936;2024-01-07T12:54:54;96740;;;2;82.5
68489;BME280;55481;48.764;8.936;2024-01-07T12:57:32;96740;;;2;82
68489;BME280;55481;48.764;8.936;2024-01-07T13:05:03;96750;;;1.8;82.5
68489;BME280;55481;48.764;8.936;2024-01-07T13:07:34;96750;;;1.8;82.5
68489;BME280;55481;48.764;8.936;2024-01-07T13:10:04;96760;;;1.9;82.5
68489;BME280;55481;48.764;8.936;2024-01-07T13:14:58;96760;;;1.8;82
68489;BME280;55481;48.764;8.936;2024-01-07T13:17:29;96760;;;1.8;82.5
68489;BME280;55481;48.764;8.936;2024-01-07T13:20:00;96760;;;1.8;82
68489;BME280;55481;48.764;8.936;2024-01-07T13:25:08;96770;;;1.8;82
68489;BME280;55481;48.764;8.936;2024-01-07T13:27:45;96780;;;1.8;82
68489;BME280;55481;48.764;8.936;2024-01-07T13:30:21;96780;;;1.8;82
68489;BME280;55481;48.764;8.936;2024-01-07T13:32:38;96780;;;1.8;82
68489;BME280;55481;48.764;8.936;2024-01-07T13:35:08;96780;;;1.6;82
68489;BME280;55481;48.764;8.936;2024-01-07T13:40:03;96790;;;1.5;82.5
68489;BME280;55481;48.764;8.936;2024-01-07T13:42:33;96790;;;1.5;82.5
68489;BME280;55481;48.764;8.936;2024-01-07T13:45:10;96780;;;1.6;82.5
68489;BME280;55481;48.764;8.936;2024-01-07T13:47:41;96790;;;1.6;82.5
68489;BME280;55481;48.764;8.936;2024-01-07T13:52:50;96790;;;1.4;82.5
68489;BME280;55481;48.764;8.936;2024-01-07T13:57:44;96800;;;1.4;82.5
68489;BME280;55481;48.764;8.936;2024-01-07T14:00:14;96810;;;1.4;82.5
68489;BME280;55481;48.764;8.936;2024-01-07T14:05:08;96810;;;1.4;82
68489;BME280;55481;48.764;8.936;2024-01-07T14:07:39;96810;;;1.3;82.5
68489;BME280;55481;48.764;8.936;2024-01-07T14:10:10;96820;;;1.3;82.5
68489;BME280;55481;48.764;8.936;2024-01-07T14:12:41;96830;;;1.3;82.5
68489;BME280;55481;48.764;8.936;2024-01-07T14:20:32;96830;;;1.4;82.5
68489;BME280;55481;48.764;8.936;2024-01-07T14:22:49;96840;;;1.4;82
68489;BME280;55481;48.764;8.936;2024-01-07T14:27:43;96840;;;1.2;82.5
68489;BME280;55481;48.764;8.936;2024-01-07T14:30:15;96840;;;1;82.5
68489;BME280;55481;48.764;8.936;2024-01-07T14:32:45;96850;;;1;82.5
68489;BME280;55481;48.764;8.936;2024-01-07T14:35:12;96840;;;1;82.5
68489;BME280;55481;48.764;8.936;2024-01-07T14:42:43;96850;;;0.9;82.5
68489;BME280;55481;48.764;8.936;2024-01-07T14:45:13;96850;;;0.8;82.5
68489;BME280;55481;48.764;8.936;2024-01-07T14:47:44;96860;;;0.9;83
68489;BME280;55481;48.764;8.936;2024-01-07T14:52:51;96860;;;0.8;82.5
68489;BME280;55481;48.764;8.936;2024-01-07T14:55:22;96870;;;0.8;82.5
68489;BME280;55481;48.764;8.936;2024-01-07T14:57:53;96870;;;0.7;82.5
68489;BME280;55481;48.764;8.936;2024-01-07T15:00:24;96880;;;0.8;82.5
68489;BME280;55481;48.764;8.936;2024-01-07T15:02:55;96880;;;0.7;82.5
68489;BME280;55481;48.764;8.936;2024-01-07T15:05:26;96880;;;0.7;82.5
68489;BME280;55481;48.764;8.936;2024-01-07T15:07:57;96890;;;0.7;82.5
68489;BME280;55481;48.764;8.936;2024-01-07T15:10:35;96880;;;0.7;82.5
68489;BME280;55481;48.764;8.936;2024-01-07T15:18:20;96890;;;0.8;82.5
68489;BME280;55481;48.764;8.936;2024-01-07T15:20:37;96900;;;0.9;82.5
68489;BME280;55481;48.764;8.936;2024-01-07T15:25:31;96900;;;0.7;82
68489;BME280;55481;48.764;8.936;2024-01-07T15:28:02;96910;;;0.5;82.5
68489;BME280;55481;48.764;8.936;2024-01-07T15:32:57;96920;;;0.4;83
68489;BME280;55481;48.764;8.936;2024-01-07T15:35:28;96920;;;0.4;82.5
68489;BME280;55481;48.764;8.936;2024-01-07T15:38:01;96920;;;0.3;82.5
68489;BME280;55481;48.764;8.936;2024-01-07T15:40:29;96930;;;0.3;82.5
68489;BME280;55481;48.764;8.936;2024-01-07T15:43:00;96930;;;0.3;82.5
68489;BME280;55481;48.764;8.936;2024-01-07T15:45:31;96940;;;0.2;83
68489;BME280;55481;48.764;8.936;2024-01-07T15:48:02;96930;;;0.3;82.5
68489;BME280;55481;48.764;8.936;2024-01-07T15:50:33;96940;;;0.3;82.5
68489;BME280;55481;48.764;8.936;2024-01-07T15:53:03;96940;;;0.3;82.5
68489;BME280;55481;48.764;8.936;2024-01-07T15:55:34;96940;;;0.3;82.5
68489;BME280;55481;48.764;8.936;2024-01-07T15:58:05;96950;;;0.3;82.5
68489;BME280;55481;48.764;8.936;2024-01-07T16:05:37;96960;;;0.1;82.5
68489;BME280;55481;48.764;8.936;2024-01-07T16:08:08;96960;;;0.1;82.5
68489;BME280;55481;48.764;8.936;2024-01-07T16:13:16;96970;;;0.2;82.5
68489;BME280;55481;48.764;8.936;2024-01-07T16:15:46;96970;;;0.2;82.5
68489;BME280;55481;48.764;8.936;2024-01-07T16:18:18;96970;;;0.2;82.5
68489;BME280;55481;48.764;8.936;2024-01-07T16:20:48;96980;;;0.2;82.5
68489;BME280;55481;48.764;8.936;2024-01-07T16:23:19;96980;;;0.2;82.5
68489;BME280;55481;48.764;8.936;2024-01-07T16:25:50;96990;;;0.1;82.5
68489;BME280;55481;48.764;8.936;2024-01-07T16:28:29;96990;;;0.1;82.5
68489;BME280;55481;48.764;8.936;2024-01-07T16:36:01;97000;;;0.1;82.5
68489;BME280;55481;48.764;8.936;2024-01-07T16:38:30;97010;;;0;82.5
68489;BME280;55481;48.764;8.936;2024-01-07T16:41:00;97010;;;0;82.5
68489;BME280;55481;48.764;8.936;2024-01-07T16:43:24;97010;;;0;82.5
68489;BME280;55481;48.764;8.936;2024-01-07T16:45:55;97010;;;0;82.5
68489;BME280;55481;48.764;8.936;2024-01-07T16:48:33;97020;;;0;82.5
68489;BME280;55481;48.764;8.936;2024-01-07T16:51:04;97020;;;0;82.5
68489;BME280;55481;48.764;8.936;2024-01-07T16:53:28;97020;;;-0.1;82.5
68489;BME280;55481;48.764;8.936;2024-01-07T16:56:00;97020;;;-0.1;82.5
68489;BME280;55481;48.764;8.936;2024-01-07T17:00:54;97020;;;0;82.5
68489;BME280;55481;48.764;8.936;2024-01-07T17:03:25;97020;;;-0.1;82.5
68489;BME280;55481;48.764;8.936;2024-01-07T17:05:55;97030;;;-0.2;82.5
68489;BME280;55481;48.764;8.936;2024-01-07T17:08:26;97030;;;-0.2;82.5
68489;BME280;55481;48.764;8.936;2024-01-07T17:10:59;97030;;;-0.1;82.5
68489;BME280;55481;48.764;8.936;2024-01-07T17:18:42;97040;;;-0.1;82.5
68489;BME280;55481;48.764;8.936;2024-01-07T17:21:07;97040;;;-0.1;82.5
68489;BME280;55481;48.764;8.936;2024-01-07T17:23:38;97050;;;0;82.5
68489;BME280;55481;48.764;8.936;2024-01-07T17:26:08;97050;;;-0.1;82.5
68489;BME280;55481;48.764;8.936;2024-01-07T17:31:09;97060;;;-0.1;82.5
68489;BME280;55481;48.764;8.936;2024-01-07T17:33:40;97060;;;-0.3;82.5
68489;BME280;55481;48.764;8.936;2024-01-07T17:36:11;97060;;;-0.3;82.5
68489;BME280;55481;48.764;8.936;2024-01-07T17:38:42;97060;;;-0.3;83
68489;BME280;55481;48.764;8.936;2024-01-07T17:48:39;97080;;;-0.5;82.5
68489;BME280;55481;48.764;8.936;2024-01-07T17:51:10;97080;;;-0.4;83
68489;BME280;55481;48.764;8.936;2024-01-07T17:53:40;97080;;;-0.4;82.5
68489;BME280;55481;48.764;8.936;2024-01-07T17:56:18;97080;;;-0.4;82.5
68489;BME280;55481;48.764;8.936;2024-01-07T17:58:42;97080;;;-0.4;82.5
68489;BME280;55481;48.764;8.936;2024-01-07T18:01:13;97080;;;-0.5;82.5
68489;BME280;55481;48.764;8.936;2024-01-07T18:03:44;97090;;;-0.5;82.5
68489;BME280;55481;48.764;8.936;2024-01-07T18:06:14;97090;;;-0.6;82.5
68489;BME280;55481;48.764;8.936;2024-01-07T18:13:59;97100;;;-0.6;82.5
68489;BME280;55481;48.764;8.936;2024-01-07T18:18:53;97100;;;-0.7;83
68489;BME280;55481;48.764;8.936;2024-01-07T18:21:24;97100;;;-0.7;83
68489;BME280;55481;48.764;8.936;2024-01-07T18:26:19;97110;;;-0.8;83
68489;BME280;55481;48.764;8.936;2024-01-07T18:28:50;97110;;;-0.9;83
68489;BME280;55481;48.764;8.936;2024-01-07T18:31:20;97120;;;-0.9;83
68489;BME280;55481;48.764;8.936;2024-01-07T18:33:51;97120;;;-1;83
68489;BME280;55481;48.764;8.936;2024-01-07T18:43:54;97140;;;-1;83
68489;BME280;55481;48.764;8.936;2024-01-07T18:46:32;97130;;;-1.2;83
68489;BME280;55481;48.764;8.936;2024-01-07T18:51:33;97140;;;-1.3;83
68489;BME280;55481;48.764;8.936;2024-01-07T18:54:04;97150;;;-1.2;83
68489;BME280;55481;48.764;8.936;2024-01-07T18:58:59;97150;;;-1.2;83
68489;BME280;55481;48.764;8.936;2024-01-07T19:01:29;97160;;;-1.2;83
68489;BME280;55481;48.764;8.936;2024-01-07T19:09:02;97160;;;-1.2;83
68489;BME280;55481;48.764;8.936;2024-01-07T19:11:33;97160;;;-1.2;83
68489;BME280;55481;48.764;8.936;2024-01-07T19:16:40;97170;;;-1.2;83
68489;BME280;55481;48.764;8.936;2024-01-07T19:19:11;97170;;;-1.2;83